KLHB/LHB METAR and TAF weather

Enter ICAO airport designator
Station Type Date Time Source
KLHB METAR 2019/06/17 01:55 UTC NOAA

KLHB 170155Z AUTO 31035G42KT 1 3/4SM +TSRA SCT006 BKN009 OVC031 20/20 A3000 RMK AO2 LTG DSNT ALQS P0034 T01970197


Station Type Date Time Source
KLHB Decoded METAR 2019/06/17 01:55 UTC NOAA

Hearne, Hearne Municipal Airport, TX, United States (KLHB) 30-52-18N 096-37-20W
Jun 16, 2019 - 09:55 PM EDT / 2019.06.17 0155 UTC
Wind: from the NW (310 degrees) at 40 MPH (35 KT) gusting to 48 MPH (42 KT):0
Visibility: 1 3/4 mile(s):0
Sky conditions: overcast
Weather: heavy rain with thunder; Lightning observed
Precipitation last hour: 0.34 inches
Temperature: 67.5 F (19.7 C)
Dew Point: 67.5 F (19.7 C)
Relative Humidity: 100%
Pressure (altimeter): 30 in. Hg (1015 hPa)
ob: KLHB 170155Z AUTO 31035G42KT 1 3/4SM +TSRA SCT006 BKN009 OVC031 20/20 A3000 RMK AO2 LTG DSNT ALQS P0034 T01970197
cycle: 2

Station Type Date Time Source
KLHB TAF UTC NOAA

Error!

Example: see airport list